Date,TemperatureHighF,TemperatureAvgF,TemperatureLowF,DewpointHighF,DewpointAvgF,DewpointLowF,HumidityHigh,HumidityAvg,HumidityLow,PressureMaxIn,PressureMinIn,WindSpeedMaxMPH,WindSpeedAvgMPH,GustSpeedMaxMPH,PrecipitationSumIn
2013-2-1,64,49,36,37,31,28,74,53,30,30.18,30.09,8,2,8,0.00
2013-2-2,62,52,42,39,34,30,67,52,34,30.20,30.12,8,2,8,0.01
2013-2-3,60,51,42,43,37,31,79,61,41,30.14,29.99,12,3,12,0.03
2013-2-4,64,49,37,36,31,21,72,53,22,30.06,29.97,11,2,11,0.00
2013-2-6,57,45,38,27,24,22,55,45,31,30.01,29.96,2,1,2,0.00
2013-2-7,61,45,33,40,32,21,82,63,25,30.02,29.80,24,9,24,0.01
2013-2-8,43,36,30,35,30,26,85,80,67,29.83,29.71,23,9,23,0.03
2013-2-9,46,34,28,34,28,23,86,77,57,29.94,29.76,14,4,14,0.02
2013-2-10,47,37,29,32,28,25,85,70,44,29.95,29.85,12,4,12,0.00
2013-2-11,46,37,30,31,18,4,85,50,19,30.11,29.93,16,4,16,0.00
2013-2-12,52,38,27,19,14,10,53,38,24,30.21,30.11,11,2,11,0.00
2013-2-13,58,44,30,23,18,14,53,38,22,30.18,30.07,11,3,11,0.00
2013-2-14,62,48,35,28,22,18,52,37,22,30.16,30.07,16,4,16,0.00
2013-2-15,63,50,38,26,20,14,51,33,17,30.23,30.15,19,4,19,0.00
2013-2-16,66,49,34,24,18,14,48,31,16,30.23,29.95,9,2,9,0.00
2013-2-17,65,46,40,31,22,15,64,39,19,29.95,29.84,10,3,10,0.00
2013-2-18,62,48,37,32,28,21,67,48,22,29.94,29.81,14,6,14,0.01
2013-2-19,46,39,34,36,33,30,86,77,61,29.80,29.57,19,11,19,0.17
2013-2-20,46,35,28,31,27,22,87,72,51,29.86,29.54,14,7,14,0.10
2013-2-21,47,38,31,32,25,18,86,64,33,29.98,29.84,11,4,11,0.00
2013-2-22,55,40,28,30,23,20,77,54,28,30.07,29.99,7,2,7,0.00
2013-2-23,61,46,34,33,28,23,71,52,30,30.04,29.81,18,6,18,0.00
2013-2-24,50,40,32,23,8,-2,52,29,12,30.11,29.99,19,7,19,0.00
2013-2-25,61,44,28,21,16,9,52,33,18,30.12,29.95,13,3,13,0.00
2013-2-26,58,44,32,26,17,10,57,36,18,30.10,29.95,14,3,14,0.00
2013-2-27,56,43,31,16,11,7,46,29,16,30.24,30.10,15,3,15,0.00
2013-2-28,63,47,32,16,12,8,47,26,15,30.29,30.22,13,3,13,0.00